Time;durP1;ratioP1;P1;durP2;ratioP2;P2;SDS_P1;SDS_P2;PMS_P1;PMS_P2;Temp;Humidity;BMP_temperature;BMP_pressure;BME280_temperature;BME280_humidity;BME280_pressure;Samples;Min_cycle;Max_cycle;Signal;HPM_P1;HPM_P2
2024/01/07 00:02:10;;;;;;;28.40;16.33;;;-1.30;83.90;;;;;;5027644;28;20045;-72
2024/01/07 00:04:36;;;;;;;24.30;15.30;;;-1.30;83.90;;;;;;5015428;28;20457;-73
2024/01/07 00:07:03;;;;;;;22.53;12.83;;;-1.30;83.90;;;;;;5028699;28;20061;-74
2024/01/07 00:09:29;;;;;;;21.27;12.37;;;-1.30;83.90;;;;;;5040086;28;20045;-74
2024/01/07 00:11:55;;;;;;;24.73;12.40;;;-1.30;83.90;;;;;;5044570;28;20071;-73
2024/01/07 00:14:20;;;;;;;17.80;10.57;;;-1.40;83.80;;;;;;5045093;28;20352;-72
2024/01/07 00:16:46;;;;;;;15.87;10.47;;;-1.40;83.70;;;;;;5035882;28;20091;-72
2024/01/07 00:19:12;;;;;;;16.07;10.07;;;-1.40;83.60;;;;;;5045945;28;20507;-71
2024/01/07 00:21:37;;;;;;;17.13;10.67;;;-1.30;83.50;;;;;;5028176;28;20036;-73
2024/01/07 00:24:03;;;;;;;17.87;9.80;;;-1.30;83.20;;;;;;5041351;28;20059;-71
2024/01/07 00:26:29;;;;;;;18.43;10.47;;;-1.30;83.20;;;;;;5026374;28;20045;-73
2024/01/07 00:28:55;;;;;;;18.03;11.07;;;-1.30;83.10;;;;;;5028980;28;20103;-72
2024/01/07 00:31:20;;;;;;;20.00;12.07;;;-1.30;83.20;;;;;;5053802;28;20045;-72
2024/01/07 00:33:46;;;;;;;19.73;11.90;;;-1.30;83.20;;;;;;5034474;28;20076;-72
2024/01/07 00:36:12;;;;;;;20.13;12.33;;;-1.30;83.20;;;;;;5045564;28;20463;-72
2024/01/07 00:38:37;;;;;;;21.27;12.73;;;-1.30;83.20;;;;;;5045299;28;20134;-73
2024/01/07 00:41:03;;;;;;;23.43;13.43;;;-1.30;83.30;;;;;;5045586;28;20479;-73
2024/01/07 00:43:29;;;;;;;21.77;12.33;;;-1.30;83.40;;;;;;5032788;28;20048;-73
2024/01/07 00:45:54;;;;;;;26.47;12.50;;;-1.40;83.50;;;;;;5017465;28;20120;-73
2024/01/07 00:48:20;;;;;;;23.73;13.23;;;-1.30;83.50;;;;;;5045088;28;20052;-73
2024/01/07 00:50:46;;;;;;;23.40;13.40;;;-1.30;83.50;;;;;;5026540;28;20460;-73
2024/01/07 00:53:11;;;;;;;19.50;12.67;;;-1.40;83.50;;;;;;5039924;28;20502;-73
2024/01/07 00:55:37;;;;;;;24.37;14.17;;;-1.30;83.70;;;;;;5045928;28;20496;-73
2024/01/07 00:58:03;;;;;;;23.33;13.50;;;-1.40;83.60;;;;;;5020310;28;20400;-73
2024/01/07 01:00:29;;;;;;;23.57;14.50;;;-1.40;83.70;;;;;;5031262;28;20041;-72
2024/01/07 01:02:55;;;;;;;25.73;14.20;;;-1.30;83.70;;;;;;5042897;28;20396;-74
2024/01/07 01:05:21;;;;;;;27.03;13.60;;;-1.30;83.90;;;;;;5026669;28;20041;-72
2024/01/07 01:07:46;;;;;;;26.57;14.53;;;-1.30;83.80;;;;;;5018804;28;20056;-72
2024/01/07 01:10:14;;;;;;;29.13;14.63;;;-1.30;83.90;;;;;;5023329;28;20423;-73
2024/01/07 01:12:40;;;;;;;22.47;12.93;;;-1.30;84.00;;;;;;5028160;28;20083;-73
2024/01/07 01:15:06;;;;;;;24.13;12.63;;;-1.30;84.10;;;;;;5026496;28;20051;-73
2024/01/07 01:17:31;;;;;;;20.70;12.20;;;-1.30;84.20;;;;;;5023031;28;20049;-73
2024/01/07 01:19:57;;;;;;;23.43;12.27;;;-1.30;84.20;;;;;;5040830;28;20048;-74
2024/01/07 01:22:23;;;;;;;18.97;11.43;;;-1.30;84.20;;;;;;5026769;28;20041;-73
2024/01/07 01:24:51;;;;;;;17.10;10.27;;;-1.30;84.10;;;;;;5026713;28;20095;-73
2024/01/07 01:27:16;;;;;;;16.17;9.87;;;-1.30;84.00;;;;;;5043335;28;20132;-74
2024/01/07 01:29:42;;;;;;;18.37;10.83;;;-1.30;83.90;;;;;;5021731;28;20139;-73
2024/01/07 01:32:07;;;;;;;16.17;9.80;;;-1.30;83.60;;;;;;5048177;28;20179;-73
2024/01/07 01:34:33;;;;;;;18.33;10.50;;;-1.30;83.50;;;;;;5053415;28;20072;-73
2024/01/07 01:36:59;;;;;;;15.40;9.67;;;-1.30;83.50;;;;;;5048766;28;20049;-72
2024/01/07 01:39:24;;;;;;;13.57;8.63;;;-1.30;83.40;;;;;;5030351;28;20313;-72
2024/01/07 01:41:50;;;;;;;17.97;9.93;;;-1.30;83.10;;;;;;5049702;28;20037;-74
2024/01/07 01:44:16;;;;;;;14.70;9.30;;;-1.30;82.80;;;;;;5033077;28;20139;-72
2024/01/07 01:46:41;;;;;;;15.57;9.73;;;-1.30;82.80;;;;;;5048445;28;20049;-74
2024/01/07 01:49:08;;;;;;;14.70;9.07;;;-1.30;82.80;;;;;;5049713;28;20045;-72
2024/01/07 01:51:35;;;;;;;17.30;9.07;;;-1.30;82.70;;;;;;5046812;28;20049;-73
2024/01/07 01:54:02;;;;;;;14.90;8.97;;;-1.30;82.50;;;;;;5036832;28;20041;-72
2024/01/07 01:56:29;;;;;;;14.67;8.77;;;-1.30;82.50;;;;;;5047774;28;20060;-72
2024/01/07 01:58:55;;;;;;;14.57;8.37;;;-1.30;82.50;;;;;;5036024;28;20047;-73
2024/01/07 02:01:23;;;;;;;15.53;8.60;;;-1.30;82.30;;;;;;5048112;28;20037;-75
2024/01/07 02:03:48;;;;;;;15.17;8.83;;;-1.40;82.20;;;;;;5045889;28;20558;-73
2024/01/07 02:06:15;;;;;;;14.93;8.60;;;-1.30;82.20;;;;;;5010288;28;20171;-73
2024/01/07 02:08:41;;;;;;;17.03;9.53;;;-1.30;82.20;;;;;;5047770;28;20123;-73
2024/01/07 02:11:20;;;;;;;12.50;8.07;;;-1.30;82.20;;;;;;5048428;28;20512;-73
2024/01/07 02:13:47;;;;;;;13.90;8.07;;;-1.30;82.40;;;;;;5038130;28;20045;-72
2024/01/07 02:16:12;;;;;;;11.80;7.67;;;-1.30;82.30;;;;;;5027898;28;20118;-74
2024/01/07 02:18:42;;;;;;;11.77;7.37;;;-1.30;82.20;;;;;;5039261;28;20049;-72
2024/01/07 02:21:09;;;;;;;15.53;7.70;;;-1.30;82.20;;;;;;5009868;28;20159;-75
2024/01/07 02:23:35;;;;;;;12.33;7.47;;;-1.30;82.20;;;;;;5027872;28;20045;-72
2024/01/07 02:26:01;;;;;;;14.17;7.30;;;-1.30;82.00;;;;;;5017935;28;20048;-72
2024/01/07 02:28:27;;;;;;;11.77;7.50;;;-1.30;82.00;;;;;;5036064;28;20076;-72
2024/01/07 02:30:52;;;;;;;10.77;6.60;;;-1.30;82.10;;;;;;5052523;28;20503;-72
2024/01/07 02:33:18;;;;;;;10.47;6.50;;;-1.30;82.10;;;;;;5057875;28;20544;-72
2024/01/07 02:35:44;;;;;;;11.70;6.83;;;-1.30;81.90;;;;;;5032016;28;20521;-73
2024/01/07 02:38:09;;;;;;;12.37;6.53;;;-1.30;81.80;;;;;;5035362;28;20054;-72
2024/01/07 02:40:35;;;;;;;9.97;6.37;;;-1.30;81.80;;;;;;5035457;28;20045;-72
2024/01/07 02:43:01;;;;;;;10.20;6.00;;;-1.30;82.10;;;;;;5053937;28;20076;-73
2024/01/07 02:45:26;;;;;;;10.60;6.43;;;-1.30;81.90;;;;;;5046900;28;20048;-73
2024/01/07 02:47:52;;;;;;;11.37;6.47;;;-1.30;81.70;;;;;;5028778;28;20053;-74
2024/01/07 02:50:18;;;;;;;10.10;6.13;;;-1.30;81.80;;;;;;5022600;28;20488;-72
2024/01/07 02:52:43;;;;;;;9.17;5.90;;;-1.30;81.70;;;;;;5000736;28;20050;-74
2024/01/07 02:55:09;;;;;;;9.20;5.80;;;-1.30;81.70;;;;;;5025488;28;20045;-73
2024/01/07 02:57:35;;;;;;;9.90;6.10;;;-1.30;81.50;;;;;;5027446;28;20057;-72
2024/01/07 03:00:01;;;;;;;12.97;6.20;;;-1.30;81.50;;;;;;5018540;28;20041;-73
2024/01/07 03:02:26;;;;;;;8.93;5.63;;;-1.30;81.40;;;;;;5037057;28;20253;-72
2024/01/07 03:04:52;;;;;;;10.13;5.30;;;-1.30;81.30;;;;;;5048069;28;20053;-72
2024/01/07 03:07:18;;;;;;;12.93;5.87;;;-1.30;81.40;;;;;;5042756;28;20050;-72
2024/01/07 03:09:43;;;;;;;11.97;5.57;;;-1.30;81.30;;;;;;4993929;28;20516;-74
2024/01/07 03:12:09;;;;;;;10.93;5.30;;;-1.30;81.40;;;;;;5010241;28;20094;-73
2024/01/07 03:14:35;;;;;;;8.00;4.93;;;-1.30;81.30;;;;;;5026925;28;20041;-72
2024/01/07 03:17:00;;;;;;;6.63;4.73;;;-1.30;81.20;;;;;;5036952;28;20064;-72
2024/01/07 03:19:26;;;;;;;7.10;4.50;;;-1.30;81.20;;;;;;5032451;28;20110;-75
2024/01/07 03:21:52;;;;;;;11.73;5.60;;;-1.30;81.20;;;;;;5046666;28;20127;-73
2024/01/07 03:24:17;;;;;;;8.23;4.47;;;-1.30;81.20;;;;;;5032391;28;20048;-75
2024/01/07 03:26:43;;;;;;;9.67;4.73;;;-1.30;81.40;;;;;;5045965;28;20073;-73
2024/01/07 03:29:09;;;;;;;8.33;4.83;;;-1.30;81.30;;;;;;5049819;28;20412;-73
2024/01/07 03:31:34;;;;;;;6.70;4.87;;;-1.30;81.20;;;;;;5060961;28;20098;-72
2024/01/07 03:34:00;;;;;;;7.70;4.70;;;-1.30;81.20;;;;;;5056119;28;20491;-72
2024/01/07 03:36:26;;;;;;;7.37;4.50;;;-1.30;81.20;;;;;;5025963;28;20180;-73
2024/01/07 03:38:53;;;;;;;9.10;4.13;;;-1.30;81.30;;;;;;5043704;28;20462;-72
2024/01/07 03:41:20;;;;;;;8.83;4.33;;;-1.30;81.00;;;;;;5047165;28;20072;-73
2024/01/07 03:43:47;;;;;;;10.97;4.77;;;-1.30;80.80;;;;;;5054736;28;20057;-73
2024/01/07 03:46:13;;;;;;;8.27;4.67;;;-1.30;80.90;;;;;;5046221;28;20128;-75
2024/01/07 03:48:40;;;;;;;8.57;3.97;;;-1.30;80.80;;;;;;5036261;28;20049;-73
2024/01/07 03:51:05;;;;;;;8.63;4.60;;;-1.30;80.60;;;;;;5034146;28;20122;-72
2024/01/07 03:53:31;;;;;;;8.03;3.70;;;-1.30;80.50;;;;;;5044575;28;20504;-71
2024/01/07 03:55:57;;;;;;;7.03;3.87;;;-1.30;80.50;;;;;;5044108;28;20048;-71
2024/01/07 03:58:22;;;;;;;8.83;3.90;;;-1.30;80.40;;;;;;5042951;28;20055;-72
2024/01/07 04:00:48;;;;;;;7.57;3.60;;;-1.30;80.00;;;;;;5044053;28;20093;-74
2024/01/07 04:03:14;;;;;;;7.33;3.80;;;-1.30;79.90;;;;;;5041669;28;20053;-72
2024/01/07 04:05:39;;;;;;;8.70;3.50;;;-1.30;80.00;;;;;;5045951;28;20057;-72
2024/01/07 04:08:05;;;;;;;6.73;3.70;;;-1.30;80.00;;;;;;5042699;28;20242;-71
2024/01/07 04:10:31;;;;;;;6.07;3.60;;;-1.30;79.90;;;;;;5032508;28;20068;-72
2024/01/07 04:12:57;;;;;;;9.23;3.57;;;-1.30;79.80;;;;;;5046703;28;20052;-73
2024/01/07 04:15:23;;;;;;;8.63;3.63;;;-1.20;79.70;;;;;;5030646;28;20511;-71
2024/01/07 04:17:49;;;;;;;6.90;3.87;;;-1.30;79.60;;;;;;5036443;28;20183;-72
2024/01/07 04:20:15;;;;;;;5.43;3.70;;;-1.30;79.50;;;;;;5053667;28;20136;-72
2024/01/07 04:22:40;;;;;;;6.40;3.03;;;-1.20;79.60;;;;;;5045473;28;20060;-72
2024/01/07 04:25:08;;;;;;;7.43;3.70;;;-1.30;79.50;;;;;;5045292;28;20106;-72
2024/01/07 04:27:37;;;;;;;6.33;3.13;;;-1.30;79.30;;;;;;5027322;28;20493;-73
2024/01/07 04:30:04;;;;;;;7.93;3.50;;;-1.30;79.50;;;;;;5037522;28;20056;-72
2024/01/07 04:32:30;;;;;;;5.90;3.20;;;-1.30;79.30;;;;;;5062359;28;20404;-73
2024/01/07 04:34:57;;;;;;;7.87;4.17;;;-1.30;79.60;;;;;;5051076;28;20063;-73
2024/01/07 04:37:23;;;;;;;6.20;2.57;;;-1.30;79.50;;;;;;5045505;28;20132;-72
2024/01/07 04:39:48;;;;;;;5.67;2.97;;;-1.30;79.50;;;;;;5011130;28;20084;-73
2024/01/07 04:42:14;;;;;;;5.20;2.83;;;-1.30;79.30;;;;;;5040154;28;20078;-73
2024/01/07 04:44:40;;;;;;;8.03;3.00;;;-1.30;79.30;;;;;;5040998;28;20045;-72
2024/01/07 04:47:27;;;;;;;5.10;2.50;;;-1.30;79.10;;;;;;5042363;28;20071;-72
2024/01/07 04:49:52;;;;;;;4.43;2.60;;;-1.30;79.40;;;;;;5000257;28;20528;-72
2024/01/07 04:52:18;;;;;;;7.67;2.50;;;-1.30;78.80;;;;;;5004865;28;20073;-72
2024/01/07 04:54:44;;;;;;;4.63;2.50;;;-1.30;79.00;;;;;;5004209;28;20053;-71
2024/01/07 04:57:09;;;;;;;5.17;2.23;;;-1.30;79.00;;;;;;5036714;28;20047;-72
2024/01/07 04:59:35;;;;;;;7.90;2.77;;;-1.30;79.00;;;;;;5045400;28;20422;-72
2024/01/07 05:02:01;;;;;;;5.67;2.43;;;-1.30;78.60;;;;;;5043748;28;20394;-71
2024/01/07 05:04:26;;;;;;;7.07;2.50;;;-1.30;79.00;;;;;;5026035;28;20963;-73
2024/01/07 05:06:52;;;;;;;8.13;2.63;;;-1.30;79.00;;;;;;5045081;28;20049;-72
2024/01/07 05:09:18;;;;;;;5.17;2.57;;;-1.20;79.10;;;;;;5015776;28;20053;-73
2024/01/07 05:11:43;;;;;;;6.37;2.50;;;-1.20;79.00;;;;;;5041953;28;20060;-74
2024/01/07 05:14:11;;;;;;;5.53;2.17;;;-1.20;79.10;;;;;;5026629;28;20401;-72
2024/01/07 05:16:36;;;;;;;6.10;2.30;;;-1.10;79.00;;;;;;5025424;28;20064;-72
2024/01/07 05:19:02;;;;;;;5.03;2.30;;;-1.20;79.00;;;;;;5044845;28;20044;-72
2024/01/07 05:21:28;;;;;;;3.80;1.80;;;-1.20;78.50;;;;;;5044655;28;20041;-72
2024/01/07 05:23:54;;;;;;;5.77;2.10;;;-1.10;78.70;;;;;;5027087;28;20049;-71
2024/01/07 05:26:19;;;;;;;5.70;1.90;;;-1.10;78.10;;;;;;5044300;28;20041;-72
2024/01/07 05:28:45;;;;;;;4.13;1.83;;;-1.10;77.90;;;;;;5044737;28;20060;-73
2024/01/07 05:31:15;;;;;;;5.17;1.87;;;-1.10;78.00;;;;;;5064259;28;20040;-71
2024/01/07 05:33:42;;;;;;;8.23;2.30;;;-1.10;78.10;;;;;;5036995;28;20056;-72
2024/01/07 05:36:08;;;;;;;4.57;2.10;;;-1.10;77.80;;;;;;5035858;28;20690;-72
2024/01/07 05:38:33;;;;;;;4.03;1.77;;;-1.10;77.50;;;;;;5029069;28;20053;-72
2024/01/07 05:40:59;;;;;;;3.33;1.63;;;-1.10;77.20;;;;;;5044304;28;20110;-72
2024/01/07 05:43:25;;;;;;;6.90;2.10;;;-1.10;77.60;;;;;;5040058;28;20427;-72
2024/01/07 05:45:50;;;;;;;3.87;1.87;;;-1.10;76.80;;;;;;5049475;28;20048;-71
2024/01/07 05:48:16;;;;;;;4.00;1.80;;;-1.10;76.90;;;;;;5027033;28;20041;-72
2024/01/07 05:50:42;;;;;;;8.07;1.97;;;-1.10;76.90;;;;;;5044228;28;20158;-73
2024/01/07 05:53:07;;;;;;;5.97;1.87;;;-1.10;76.80;;;;;;5009306;28;20045;-71
2024/01/07 05:55:33;;;;;;;3.03;1.60;;;-1.10;76.80;;;;;;5044232;28;20084;-72
2024/01/07 05:57:59;;;;;;;2.23;1.40;;;-1.10;76.80;;;;;;5030669;28;20132;-72
2024/01/07 06:00:24;;;;;;;4.40;1.90;;;-1.10;76.60;;;;;;5035805;28;20053;-72
2024/01/07 06:02:50;;;;;;;3.07;1.40;;;-1.10;76.70;;;;;;5038905;28;20104;-72
2024/01/07 06:05:16;;;;;;;4.03;1.70;;;-1.10;76.60;;;;;;5042302;28;20041;-74
2024/01/07 06:07:41;;;;;;;4.47;1.70;;;-1.10;76.50;;;;;;5017701;28;20041;-72
2024/01/07 06:10:07;;;;;;;3.30;1.60;;;-1.10;75.90;;;;;;5026664;28;20053;-72
2024/01/07 06:12:33;;;;;;;2.33;1.50;;;-1.10;75.90;;;;;;5042133;28;20166;-72
2024/01/07 06:14:59;;;;;;;2.60;1.50;;;-1.10;75.80;;;;;;5041587;28;20512;-72
2024/01/07 06:17:24;;;;;;;5.70;1.47;;;-1.10;75.90;;;;;;5043270;28;20053;-72
2024/01/07 06:19:50;;;;;;;3.80;1.50;;;-1.10;76.10;;;;;;5024599;28;20049;-71
2024/01/07 06:22:15;;;;;;;3.50;1.20;;;-1.10;75.80;;;;;;5040115;28;20045;-73
2024/01/07 06:24:41;;;;;;;4.63;1.50;;;-1.10;75.50;;;;;;5047057;28;20045;-72
2024/01/07 06:27:07;;;;;;;3.63;1.43;;;-1.10;76.30;;;;;;5055485;28;20446;-72
2024/01/07 06:29:33;;;;;;;3.83;1.50;;;-1.10;76.30;;;;;;5055952;28;20052;-74
2024/01/07 06:31:59;;;;;;;3.53;1.70;;;-1.10;76.40;;;;;;5064352;28;20067;-72
2024/01/07 06:34:25;;;;;;;3.47;1.57;;;-1.10;76.20;;;;;;5051632;28;20056;-71
2024/01/07 06:36:50;;;;;;;4.20;1.40;;;-1.10;76.10;;;;;;5053907;28;20048;-73
2024/01/07 06:39:16;;;;;;;3.23;1.73;;;-1.10;76.20;;;;;;5046782;28;20060;-72
2024/01/07 06:41:42;;;;;;;3.70;1.70;;;-1.10;76.00;;;;;;5042789;28;20068;-75
2024/01/07 06:44:07;;;;;;;4.20;1.70;;;-1.10;75.90;;;;;;5020877;28;20043;-71
2024/01/07 06:46:34;;;;;;;3.23;1.50;;;-1.20;75.60;;;;;;5041122;28;20685;-72
2024/01/07 06:49:00;;;;;;;3.97;1.60;;;-1.20;75.50;;;;;;5022126;28;20465;-72
2024/01/07 06:51:26;;;;;;;6.90;1.90;;;-1.20;75.70;;;;;;5048714;28;20397;-71
2024/01/07 06:53:52;;;;;;;2.93;1.70;;;-1.20;75.10;;;;;;5034559;28;20041;-72
2024/01/07 06:56:17;;;;;;;4.57;1.33;;;-1.20;75.10;;;;;;5026337;28;20042;-72
2024/01/07 06:58:43;;;;;;;4.70;1.57;;;-1.20;75.40;;;;;;5040627;28;20036;-72
2024/01/07 07:01:10;;;;;;;4.40;1.93;;;-1.20;75.50;;;;;;5043963;28;20060;-73
2024/01/07 07:03:35;;;;;;;5.77;1.80;;;-1.20;75.20;;;;;;5026723;28;20056;-71
2024/01/07 07:06:01;;;;;;;4.43;1.60;;;-1.30;75.20;;;;;;5060380;28;20049;-72
2024/01/07 07:08:26;;;;;;;3.67;1.87;;;-1.30;75.00;;;;;;5053320;28;20052;-71
2024/01/07 07:10:52;;;;;;;3.50;1.77;;;-1.30;75.10;;;;;;5040488;28;20045;-73
2024/01/07 07:13:18;;;;;;;5.10;1.90;;;-1.30;75.10;;;;;;5027765;28;20140;-72
2024/01/07 07:15:44;;;;;;;7.10;1.93;;;-1.30;75.10;;;;;;5029527;28;20121;-74
2024/01/07 07:18:09;;;;;;;3.40;1.70;;;-1.40;74.70;;;;;;5023932;28;20593;-72
2024/01/07 07:20:35;;;;;;;4.10;1.73;;;-1.50;75.00;;;;;;5034000;28;20095;-72
2024/01/07 07:23:00;;;;;;;6.83;1.90;;;-1.50;75.40;;;;;;5021804;28;20037;-72
2024/01/07 07:25:26;;;;;;;5.27;2.13;;;-1.60;75.60;;;;;;5026752;28;20144;-71
2024/01/07 07:27:52;;;;;;;3.80;2.10;;;-1.60;75.80;;;;;;5027410;28;20042;-72
2024/01/07 07:30:18;;;;;;;5.03;2.20;;;-1.60;76.20;;;;;;5019326;28;20073;-72
2024/01/07 07:32:44;;;;;;;5.30;1.80;;;-1.70;76.20;;;;;;5011526;28;20053;-74
2024/01/07 07:35:09;;;;;;;4.63;2.03;;;-1.80;76.30;;;;;;5019834;28;20612;-72
2024/01/07 07:37:35;;;;;;;4.10;1.70;;;-1.80;76.20;;;;;;5024495;28;20052;-72
2024/01/07 07:40:02;;;;;;;3.73;2.00;;;-1.80;76.50;;;;;;5008876;28;20796;-74
2024/01/07 07:42:28;;;;;;;4.23;2.00;;;-1.80;76.90;;;;;;5046365;28;20410;-72
2024/01/07 07:44:54;;;;;;;4.13;1.40;;;-1.90;77.00;;;;;;5059418;28;20073;-72
2024/01/07 07:47:20;;;;;;;6.67;2.07;;;-1.90;76.80;;;;;;5055989;28;20056;-72
2024/01/07 07:49:46;;;;;;;3.40;1.43;;;-1.90;77.00;;;;;;5028479;28;20501;-72
2024/01/07 07:52:14;;;;;;;6.27;1.80;;;-2.00;77.00;;;;;;5032966;28;20084;-74
2024/01/07 07:54:40;;;;;;;4.50;1.77;;;-1.90;77.20;;;;;;5042706;28;20045;-73
2024/01/07 07:57:05;;;;;;;3.27;1.60;;;-1.90;77.30;;;;;;5050128;28;20067;-72
2024/01/07 07:59:31;;;;;;;4.30;1.47;;;-1.90;77.50;;;;;;5051785;28;20738;-72
2024/01/07 08:01:57;;;;;;;2.53;1.50;;;-1.80;77.40;;;;;;5031195;28;20142;-72
2024/01/07 08:04:22;;;;;;;4.30;2.17;;;-1.80;77.70;;;;;;5050981;28;20124;-72
2024/01/07 08:06:48;;;;;;;5.00;1.63;;;-1.70;77.50;;;;;;5042810;28;20099;-71
2024/01/07 08:09:14;;;;;;;3.47;1.50;;;-1.70;77.60;;;;;;5050378;28;20070;-72
2024/01/07 08:11:40;;;;;;;2.27;1.63;;;-1.60;77.00;;;;;;5025441;28;20132;-72
2024/01/07 08:14:06;;;;;;;3.23;1.83;;;-1.60;76.90;;;;;;5024243;28;20444;-73
2024/01/07 08:16:32;;;;;;;4.27;2.30;;;-1.60;76.90;;;;;;5018511;28;20060;-73
2024/01/07 08:18:57;;;;;;;4.67;2.07;;;-1.50;76.10;;;;;;5042789;28;20445;-72
2024/01/07 08:21:24;;;;;;;4.97;2.13;;;-1.50;75.70;;;;;;5040980;28;20077;-73
2024/01/07 08:23:50;;;;;;;3.97;1.87;;;-1.50;75.10;;;;;;5050775;28;20064;-71
2024/01/07 08:26:19;;;;;;;16.03;2.47;;;-1.30;75.10;;;;;;5043350;28;20471;-72
2024/01/07 08:28:45;;;;;;;4.47;1.73;;;-1.40;74.70;;;;;;5021539;28;20049;-73
2024/01/07 08:31:11;;;;;;;4.10;2.10;;;-1.30;74.80;;;;;;5041899;28;20048;-72
2024/01/07 08:33:37;;;;;;;2.90;1.10;;;-1.30;75.20;;;;;;5046886;28;20075;-72
2024/01/07 08:36:02;;;;;;;4.13;1.93;;;-1.30;75.10;;;;;;5006256;28;20114;-72
2024/01/07 08:38:28;;;;;;;3.37;2.00;;;-1.30;75.30;;;;;;5031459;28;20049;-72
2024/01/07 08:40:54;;;;;;;4.70;2.00;;;-1.30;74.70;;;;;;5042620;28;20049;-73
2024/01/07 08:43:19;;;;;;;5.03;2.10;;;-1.30;74.60;;;;;;5051509;28;20044;-74
2024/01/07 08:45:45;;;;;;;4.53;2.00;;;-1.30;74.90;;;;;;5049017;28;20480;-71
2024/01/07 08:48:12;;;;;;;4.53;1.97;;;-1.30;75.50;;;;;;5049330;28;20053;-73
2024/01/07 08:50:38;;;;;;;2.33;1.60;;;-1.30;75.50;;;;;;5043672;28;20060;-72
2024/01/07 08:53:04;;;;;;;3.13;1.70;;;-1.30;75.40;;;;;;5046614;28;20143;-72
2024/01/07 08:55:30;;;;;;;6.80;2.17;;;-1.30;75.50;;;;;;5052363;28;20053;-72
2024/01/07 08:57:56;;;;;;;3.63;1.57;;;-1.30;75.70;;;;;;5059088;28;20044;-72
2024/01/07 09:00:25;;;;;;;5.13;1.43;;;-1.20;75.70;;;;;;5049765;28;20186;-74
2024/01/07 09:02:52;;;;;;;4.27;1.60;;;-1.20;76.00;;;;;;5023534;28;20272;-72
2024/01/07 09:05:17;;;;;;;4.67;1.80;;;-1.10;75.70;;;;;;5024229;28;20488;-71
2024/01/07 09:07:43;;;;;;;2.63;1.40;;;-1.10;75.20;;;;;;5037431;28;20107;-72
2024/01/07 09:10:13;;;;;;;3.07;1.60;;;-1.10;74.60;;;;;;5039206;28;20427;-73
2024/01/07 09:12:39;;;;;;;4.47;2.03;;;-1.10;74.40;;;;;;5047613;28;20368;-73
2024/01/07 09:15:08;;;;;;;4.33;1.90;;;-1.10;75.30;;;;;;5043554;28;20081;-72
2024/01/07 09:17:38;;;;;;;4.60;1.63;;;-1.10;75.40;;;;;;5046062;28;20079;-71
2024/01/07 09:20:07;;;;;;;1.90;1.50;;;-1.00;75.60;;;;;;5048587;28;20507;-74
2024/01/07 09:22:34;;;;;;;5.40;1.53;;;-1.00;75.70;;;;;;5028420;28;20052;-72
2024/01/07 09:25:05;;;;;;;5.87;1.73;;;-1.00;75.50;;;;;;5038009;28;20052;-72
2024/01/07 09:27:31;;;;;;;3.33;1.63;;;-1.00;75.40;;;;;;5041077;28;20540;-74
2024/01/07 09:29:57;;;;;;;4.37;1.30;;;-0.90;75.20;;;;;;5046877;28;20053;-71
2024/01/07 09:32:22;;;;;;;4.33;1.00;;;-0.90;75.80;;;;;;5046838;28;20048;-72
2024/01/07 09:34:48;;;;;;;2.77;1.40;;;-0.90;74.60;;;;;;5024913;28;20491;-72
2024/01/07 09:37:14;;;;;;;4.23;1.50;;;-0.90;74.20;;;;;;5046492;28;20526;-74
2024/01/07 09:39:40;;;;;;;3.73;1.57;;;-0.80;74.50;;;;;;5018521;28;20069;-72
2024/01/07 09:42:18;;;;;;;3.00;1.80;;;-0.80;74.70;;;;;;5050652;28;20052;-72
2024/01/07 09:44:44;;;;;;;2.53;1.43;;;-0.70;75.10;;;;;;5036510;28;20109;-74
2024/01/07 09:47:15;;;;;;;5.27;1.60;;;-0.70;74.40;;;;;;5052082;28;20068;-72
2024/01/07 09:49:42;;;;;;;2.67;0.75;;;-0.70;74.40;;;;;;5058784;28;20048;-73
2024/01/07 09:52:09;;;;;;;5.43;1.53;;;-0.70;74.40;;;;;;5040168;28;20616;-72
2024/01/07 09:54:39;;;;;;;3.13;1.23;;;-0.70;73.30;;;;;;5047208;28;20128;-73
2024/01/07 09:57:07;;;;;;;2.13;1.07;;;-0.70;73.50;;;;;;5044762;28;20469;-72
2024/01/07 09:59:34;;;;;;;2.37;1.50;;;-0.70;74.40;;;;;;5048555;28;20061;-72
2024/01/07 10:02:00;;;;;;;4.30;1.80;;;-0.60;74.50;;;;;;5034564;28;20068;-73
2024/01/07 10:04:30;;;;;;;2.83;1.47;;;-0.60;74.10;;;;;;5054959;28;20128;-72
2024/01/07 10:06:56;;;;;;;3.53;1.40;;;-0.60;74.00;;;;;;5057533;28;20403;-73
2024/01/07 10:09:23;;;;;;;3.37;1.50;;;-0.50;74.50;;;;;;5032257;28;20052;-72
2024/01/07 10:11:49;;;;;;;3.70;1.57;;;-0.60;74.20;;;;;;5049029;28;20570;-73
2024/01/07 10:14:16;;;;;;;3.57;1.93;;;-0.50;74.20;;;;;;5055091;28;20053;-74
2024/01/07 10:16:42;;;;;;;5.57;2.20;;;-0.40;74.30;;;;;;5053466;28;20086;-75
2024/01/07 10:19:07;;;;;;;3.20;1.50;;;-0.40;74.00;;;;;;5054071;28;20041;-73
2024/01/07 10:21:34;;;;;;;3.13;1.47;;;-0.40;73.70;;;;;;5044940;28;20071;-73
2024/01/07 10:24:13;;;;;;;4.93;1.70;;;-0.30;74.00;;;;;;5037865;28;20415;-72
2024/01/07 10:26:42;;;;;;;5.07;1.80;;;-0.20;74.60;;;;;;5045932;28;20171;-73
2024/01/07 10:29:08;;;;;;;6.77;2.67;;;-0.10;74.20;;;;;;5019889;28;20045;-72
2024/01/07 10:31:34;;;;;;;4.80;2.23;;;-0.10;74.80;;;;;;5055487;28;20062;-73
2024/01/07 10:34:00;;;;;;;5.17;1.90;;;-0.10;74.00;;;;;;5054652;28;20033;-72
2024/01/07 10:36:26;;;;;;;3.27;2.30;;;-0.10;74.20;;;;;;5053239;28;20075;-74
2024/01/07 10:38:52;;;;;;;4.37;2.60;;;-0.10;74.00;;;;;;5055293;28;20385;-73
2024/01/07 10:41:22;;;;;;;6.23;3.40;;;0.00;74.70;;;;;;5061905;28;20051;-75
2024/01/07 10:43:49;;;;;;;5.20;3.40;;;0.60;75.30;;;;;;5048834;28;20480;-74
2024/01/07 10:46:16;;;;;;;4.40;2.70;;;1.10;73.60;;;;;;5022661;28;20053;-74
2024/01/07 10:49:07;;;;;;;6.17;3.13;;;1.30;72.90;;;;;;5031814;28;20057;-75
2024/01/07 10:51:34;;;;;;;4.60;2.97;;;1.40;73.40;;;;;;5018909;28;20042;-73
2024/01/07 10:54:00;;;;;;;4.90;2.50;;;1.40;73.20;;;;;;5003017;28;20164;-74
2024/01/07 10:56:42;;;;;;;3.97;2.37;;;1.30;73.50;;;;;;5022491;28;20050;-74
2024/01/07 10:59:08;;;;;;;4.75;2.40;;;1.20;74.40;;;;;;5027050;28;20408;-76
2024/01/07 11:01:34;;;;;;;4.43;2.30;;;1.30;73.80;;;;;;5022477;28;20058;-76
2024/01/07 11:04:24;;;;;;;4.83;2.53;;;1.50;74.70;;;;;;5015752;28;20625;-74
2024/01/07 11:07:13;;;;;;;4.77;2.33;;;1.60;74.50;;;;;;5033284;28;20053;-75
2024/01/07 11:09:46;;;;;;;3.67;2.10;;;1.50;74.40;;;;;;5020357;28;20053;-74
2024/01/07 11:12:12;;;;;;;3.37;1.87;;;1.40;74.30;;;;;;5040337;28;20083;-74
2024/01/07 11:14:42;;;;;;;5.17;2.07;;;1.40;73.40;;;;;;5041108;28;20053;-74
2024/01/07 11:17:07;;;;;;;5.33;2.03;;;1.20;74.10;;;;;;5020964;28;20063;-74
2024/01/07 11:19:35;;;;;;;5.87;2.70;;;1.20;73.90;;;;;;5014685;28;20058;-74
2024/01/07 11:22:29;;;;;;;7.07;2.47;;;1.20;74.60;;;;;;5018100;28;20075;-74
2024/01/07 11:24:59;;;;;;;6.07;2.27;;;1.20;74.80;;;;;;5029390;28;20046;-74
2024/01/07 11:27:34;;;;;;;4.73;2.10;;;1.30;74.80;;;;;;5022424;28;20053;-75
2024/01/07 11:30:19;;;;;;;3.57;2.20;;;2.20;75.70;;;;;;5038234;28;20519;-74
2024/01/07 11:32:48;;;;;;;6.87;2.57;;;3.50;74.80;;;;;;5039623;28;20500;-76
2024/01/07 11:35:13;;;;;;;6.50;2.60;;;4.30;73.60;;;;;;5040892;28;20087;-76
2024/01/07 11:37:39;;;;;;;5.60;2.60;;;4.80;72.80;;;;;;5030519;28;20302;-74
2024/01/07 11:40:06;;;;;;;6.87;2.40;;;5.40;72.20;;;;;;5031959;28;20049;-74
2024/01/07 11:42:32;;;;;;;4.27;2.63;;;6.00;70.80;;;;;;5023811;28;20049;-74
2024/01/07 11:44:58;;;;;;;3.80;2.10;;;6.30;69.10;;;;;;5029881;28;20048;-74
2024/01/07 11:47:27;;;;;;;6.33;2.77;;;6.30;68.90;;;;;;5038689;28;20120;-74
2024/01/07 11:49:54;;;;;;;6.43;2.50;;;6.10;68.80;;;;;;5040140;28;20099;-75
2024/01/07 11:52:20;;;;;;;4.53;2.30;;;5.90;68.10;;;;;;5056749;28;20063;-74
2024/01/07 11:54:47;;;;;;;6.27;2.70;;;5.50;68.30;;;;;;5052057;28;20060;-74
2024/01/07 11:57:13;;;;;;;6.07;2.70;;;5.20;68.90;;;;;;5060992;28;20048;-74
2024/01/07 11:59:39;;;;;;;6.80;2.97;;;4.70;69.20;;;;;;5035799;28;20057;-73
2024/01/07 12:02:05;;;;;;;7.23;3.57;;;4.20;69.20;;;;;;5039356;28;20057;-73
2024/01/07 12:04:32;;;;;;;6.53;3.73;;;4.00;69.80;;;;;;5051066;28;20499;-73
2024/01/07 12:06:58;;;;;;;8.43;3.80;;;3.50;69.30;;;;;;5055717;28;20041;-73
2024/01/07 12:09:24;;;;;;;7.90;3.47;;;2.90;70.60;;;;;;5035662;28;20059;-73
2024/01/07 12:11:51;;;;;;;7.30;3.20;;;2.40;71.20;;;;;;5035767;28;20408;-72
2024/01/07 12:14:17;;;;;;;5.87;3.27;;;2.10;71.80;;;;;;5028317;28;20128;-72
2024/01/07 12:16:43;;;;;;;7.63;3.30;;;2.00;72.20;;;;;;5054843;28;20053;-72
2024/01/07 12:19:10;;;;;;;6.67;3.40;;;2.10;72.10;;;;;;5034380;28;20060;-73
2024/01/07 12:21:37;;;;;;;6.10;3.23;;;2.00;72.00;;;;;;5051039;28;20110;-72
2024/01/07 12:24:03;;;;;;;6.73;3.50;;;1.90;72.20;;;;;;5039450;28;20438;-72
2024/01/07 12:26:30;;;;;;;6.53;3.10;;;1.80;71.90;;;;;;5041786;28;20057;-71
2024/01/07 12:29:04;;;;;;;9.17;3.40;;;1.70;71.90;;;;;;5043266;28;20056;-73
2024/01/07 12:31:31;;;;;;;7.03;3.33;;;1.60;72.70;;;;;;5031687;28;20389;-72
2024/01/07 12:33:57;;;;;;;7.10;3.80;;;1.60;73.20;;;;;;5044771;28;20528;-72
2024/01/07 12:36:24;;;;;;;10.37;3.60;;;1.60;73.20;;;;;;5031397;28;20056;-72
2024/01/07 12:38:53;;;;;;;7.70;3.40;;;1.80;73.80;;;;;;5049580;28;20095;-72
2024/01/07 12:41:20;;;;;;;10.97;3.43;;;2.30;73.50;;;;;;5042842;28;20045;-72
2024/01/07 12:43:45;;;;;;;6.47;3.50;;;2.90;71.60;;;;;;5025961;28;20129;-72